Time;durP1;ratioP1;P1;durP2;ratioP2;P2;SDS_P1;SDS_P2;PMS_P1;PMS_P2;Temp;Humidity;BMP_temperature;BMP_pressure;BME280_temperature;BME280_humidity;BME280_pressure;Samples;Min_cycle;Max_cycle;Signal;HPM_P1;HPM_P2
2023/03/31 00:02:12;;;;;;;;;;;12.20;80.40;;;;;;5074231;28;20047;-40
2023/03/31 00:04:51;;;;;;;;;;;12.30;80.20;;;;;;5074075;28;19923;-39
2023/03/31 00:07:23;;;;;;;;;;;12.30;80.20;;;;;;5073978;28;19908;-39
2023/03/31 00:09:49;;;;;;;;;;;12.30;80.00;;;;;;5073892;28;19917;-40
2023/03/31 00:12:15;;;;;;;;;;;12.40;80.00;;;;;;5074001;28;20375;-42
2023/03/31 00:14:41;;;;;;;;;;;12.40;80.00;;;;;;5074276;28;19915;-40
2023/03/31 00:17:07;;;;;;;;;;;12.40;80.00;;;;;;5072497;28;19909;-40
2023/03/31 00:19:33;;;;;;;;;;;12.40;79.90;;;;;;5073877;28;19942;-40
2023/03/31 00:22:01;;;;;;;;;;;12.40;80.00;;;;;;5073734;28;19917;-40
2023/03/31 00:24:27;;;;;;;;;;;12.40;80.00;;;;;;5073555;28;19908;-40
2023/03/31 00:26:53;;;;;;;;;;;12.40;79.90;;;;;;5073869;28;19959;-40
2023/03/31 00:29:18;;;;;;;;;;;12.50;80.00;;;;;;5073820;28;19989;-38
2023/03/31 00:31:44;;;;;;;;;;;12.40;79.90;;;;;;5073594;28;19915;-41
2023/03/31 00:34:09;;;;;;;;;;;12.50;79.90;;;;;;5073796;28;19916;-39
2023/03/31 00:36:44;;;;;;;;;;;12.50;79.90;;;;;;5073824;28;19909;-41
2023/03/31 00:39:10;;;;;;;;;;;12.50;79.90;;;;;;5073483;28;19915;-41
2023/03/31 00:41:37;;;;;;;;;;;12.50;79.90;;;;;;5073617;28;19908;-40
2023/03/31 00:44:07;;;;;;;;;;;12.50;79.90;;;;;;5074011;28;19940;-57
2023/03/31 00:46:45;;;;;;;;;;;12.50;79.90;;;;;;5073574;28;19912;-41
2023/03/31 00:49:13;;;;;;;;;;;12.50;79.90;;;;;;5073251;28;19995;-40
2023/03/31 00:51:39;;;;;;;;;;;12.50;79.90;;;;;;5071867;28;19908;-43
2023/03/31 00:54:05;;;;;;;;;;;12.50;79.90;;;;;;5073193;28;19958;-46
2023/03/31 00:56:34;;;;;;;;;;;12.50;79.90;;;;;;5073412;28;20412;-40
2023/03/31 00:59:01;;;;;;;;;;;12.50;79.90;;;;;;5072853;28;19908;-41
2023/03/31 01:01:26;;;;;;;;;;;12.50;79.90;;;;;;5072425;28;19931;-38
2023/03/31 01:03:52;;;;;;;;;;;12.50;79.90;;;;;;5072681;28;19909;-40
2023/03/31 01:06:22;;;;;;;;;;;12.60;80.00;;;;;;5072252;28;19977;-40
2023/03/31 01:08:48;;;;;;;;;;;12.60;80.00;;;;;;5072243;28;19909;-42
2023/03/31 01:11:15;;;;;;;;;;;12.60;80.00;;;;;;5072520;28;20383;-42
2023/03/31 01:13:42;;;;;;;;;;;12.60;80.20;;;;;;5072313;28;19956;-39
2023/03/31 01:16:08;;;;;;;;;;;12.60;80.20;;;;;;5072359;28;19909;-38
2023/03/31 01:18:33;;;;;;;;;;;12.50;80.20;;;;;;5072553;28;19916;-40
2023/03/31 01:21:14;;;;;;;;;;;12.50;80.40;;;;;;5072128;28;19917;-39
2023/03/31 01:23:39;;;;;;;;;;;12.40;80.40;;;;;;5071941;28;19928;-40
2023/03/31 01:26:06;;;;;;;;;;;12.50;80.60;;;;;;5071904;28;19969;-44
2023/03/31 01:28:31;;;;;;;;;;;12.40;80.60;;;;;;5072377;28;20014;-40
2023/03/31 01:31:09;;;;;;;;;;;12.40;80.70;;;;;;5071834;28;19909;-39
2023/03/31 01:33:46;;;;;;;;;;;12.40;80.80;;;;;;5072022;28;19908;-41
2023/03/31 01:36:30;;;;;;;;;;;12.40;81.00;;;;;;5071040;28;20368;-40
2023/03/31 01:38:56;;;;;;;;;;;12.40;81.00;;;;;;5071694;28;19920;-38
2023/03/31 01:41:27;;;;;;;;;;;12.40;81.10;;;;;;5071852;28;20064;-44
2023/03/31 01:43:59;;;;;;;;;;;12.40;81.10;;;;;;5071690;28;19915;-39
2023/03/31 01:46:32;;;;;;;;;;;12.40;81.20;;;;;;5071588;28;20115;-59
2023/03/31 01:49:16;;;;;;;;;;;12.40;81.10;;;;;;5071547;28;20000;-37
2023/03/31 01:51:45;;;;;;;;;;;12.40;81.20;;;;;;5071896;28;19934;-47
2023/03/31 01:54:16;;;;;;;;;;;12.40;81.20;;;;;;5071679;28;20222;-40
2023/03/31 01:57:02;;;;;;;;;;;12.40;81.20;;;;;;5071608;28;19915;-39
2023/03/31 01:59:37;;;;;;;;;;;12.40;81.30;;;;;;5071929;28;19919;-37
2023/03/31 02:02:12;;;;;;;;;;;12.40;81.20;;;;;;5071954;28;19922;-40
2023/03/31 02:04:41;;;;;;;;;;;12.40;81.30;;;;;;5071811;28;19938;-45
2023/03/31 02:07:08;;;;;;;;;;;12.40;81.30;;;;;;5072132;28;19932;-44
2023/03/31 02:09:36;;;;;;;;;;;12.40;81.50;;;;;;5072238;28;20216;-39
2023/03/31 02:12:07;;;;;;;;;;;12.40;81.50;;;;;;5072235;28;20394;-44
2023/03/31 02:14:34;;;;;;;;;;;12.40;81.60;;;;;;5072238;28;19908;-43
2023/03/31 02:17:01;;;;;;;;;;;12.30;81.60;;;;;;5072111;28;20269;-39
2023/03/31 02:19:29;;;;;;;;;;;12.30;81.70;;;;;;5072172;28;20309;-41
2023/03/31 02:21:54;;;;;;;;;;;12.30;81.80;;;;;;5071727;28;20124;-39
2023/03/31 02:24:21;;;;;;;;;;;12.30;81.80;;;;;;5071730;28;20457;-39
2023/03/31 02:27:02;;;;;;;;;;;12.30;81.80;;;;;;5071749;28;19909;-38
2023/03/31 02:29:28;;;;;;;;;;;12.30;81.80;;;;;;5071649;28;19912;-37
2023/03/31 02:32:03;;;;;;;;;;;12.30;81.90;;;;;;5071674;28;20249;-39
2023/03/31 02:34:28;;;;;;;;;;;12.30;81.90;;;;;;5071654;28;20007;-39
2023/03/31 02:36:54;;;;;;;;;;;12.30;82.00;;;;;;5071684;28;20347;-41
2023/03/31 02:39:25;;;;;;;;;;;12.30;82.00;;;;;;5071874;28;19915;-38
2023/03/31 02:41:51;;;;;;;;;;;12.30;82.00;;;;;;5071804;28;20061;-40
2023/03/31 02:44:17;;;;;;;;;;;12.30;82.00;;;;;;5071560;28;20391;-39
2023/03/31 02:46:43;;;;;;;;;;;12.40;82.10;;;;;;5071428;28;20058;-40
2023/03/31 02:49:09;;;;;;;;;;;12.40;82.20;;;;;;5074861;28;20043;-41
2023/03/31 02:51:44;;;;;;;;;;;12.30;82.20;;;;;;5075586;28;19919;-50
2023/03/31 02:54:28;;;;;;;;;;;12.40;82.20;;;;;;5075604;28;19931;-46
2023/03/31 02:57:12;;;;;;;;;;;12.40;82.80;;;;;;5075360;28;19962;-45
2023/03/31 02:59:57;;;;;;;;;;;12.40;82.20;;;;;;5075511;28;20024;-37
2023/03/31 03:02:40;;;;;;;;;;;12.40;82.30;;;;;;5075193;28;19915;-41
2023/03/31 03:05:27;;;;;;;;;;;12.40;82.30;;;;;;5075319;28;19919;-46
2023/03/31 03:08:04;;;;;;;;;;;12.40;82.30;;;;;;5075277;28;20247;-39
2023/03/31 03:10:52;;;;;;;;;;;12.40;82.30;;;;;;5075400;28;19978;-40
2023/03/31 03:13:32;;;;;;;;;;;12.30;82.30;;;;;;5074028;28;19912;-39
2023/03/31 03:16:01;;;;;;;;;;;12.30;82.40;;;;;;5075034;28;19978;-41
2023/03/31 03:18:26;;;;;;;;;;;12.30;82.40;;;;;;5075158;28;19908;-39
2023/03/31 03:20:52;;;;;;;;;;;12.30;82.60;;;;;;5073525;28;20399;-39
2023/03/31 03:23:18;;;;;;;;;;;12.30;82.70;;;;;;5074664;28;19925;-39
2023/03/31 03:25:43;;;;;;;;;;;12.30;82.70;;;;;;5074741;28;19913;-41
2023/03/31 03:28:09;;;;;;;;;;;12.30;82.70;;;;;;5074781;28;19913;-40
2023/03/31 03:30:34;;;;;;;;;;;12.20;82.70;;;;;;5074730;28;19915;-52
2023/03/31 03:33:00;;;;;;;;;;;12.20;82.70;;;;;;5074606;28;19951;-40
2023/03/31 03:35:25;;;;;;;;;;;12.20;82.70;;;;;;5074677;28;19916;-41
2023/03/31 03:37:50;;;;;;;;;;;12.20;82.80;;;;;;5074566;28;19947;-39
2023/03/31 03:40:16;;;;;;;;;;;12.20;82.70;;;;;;5074802;28;19909;-46
2023/03/31 03:42:42;;;;;;;;;;;12.20;82.70;;;;;;5074874;28;19908;-40
2023/03/31 03:45:07;;;;;;;;;;;12.20;82.80;;;;;;5074642;28;19913;-39
2023/03/31 03:47:33;;;;;;;;;;;12.20;82.80;;;;;;5074910;28;19909;-39
2023/03/31 03:49:58;;;;;;;;;;;12.30;82.80;;;;;;5074648;28;20270;-41
2023/03/31 03:52:24;;;;;;;;;;;12.20;82.80;;;;;;5074508;28;19909;-39
2023/03/31 03:54:49;;;;;;;;;;;12.20;82.80;;;;;;5074294;28;19908;-38
2023/03/31 03:57:15;;;;;;;;;;;12.20;82.80;;;;;;5073947;28;19908;-41
2023/03/31 03:59:40;;;;;;;;;;;12.20;82.80;;;;;;5073496;28;19909;-38
2023/03/31 04:02:06;;;;;;;;;;;12.20;82.90;;;;;;5074312;28;19927;-40
2023/03/31 04:04:31;;;;;;;;;;;12.20;82.90;;;;;;5074138;28;19916;-37
2023/03/31 04:06:57;;;;;;;;;;;12.20;82.90;;;;;;5074199;28;20328;-41
2023/03/31 04:09:22;;;;;;;;;;;12.20;83.00;;;;;;5073830;28;19992;-40
2023/03/31 04:11:48;;;;;;;;;;;12.20;83.10;;;;;;5074185;28;19919;-37
2023/03/31 04:14:13;;;;;;;;;;;12.20;83.10;;;;;;5073930;28;20403;-39
2023/03/31 04:16:39;;;;;;;;;;;12.20;83.10;;;;;;5074029;28;19908;-38
2023/03/31 04:19:05;;;;;;;;;;;12.10;83.10;;;;;;5074225;28;20007;-41
2023/03/31 04:21:33;;;;;;;;;;;12.10;83.30;;;;;;5073937;28;19964;-40
2023/03/31 04:24:03;;;;;;;;;;;12.10;83.40;;;;;;5073769;28;19924;-38
2023/03/31 04:26:30;;;;;;;;;;;12.00;83.50;;;;;;5073748;28;20290;-37
2023/03/31 04:29:01;;;;;;;;;;;12.00;83.60;;;;;;5073721;28;19916;-47
2023/03/31 04:31:29;;;;;;;;;;;12.00;83.70;;;;;;5073795;28;19908;-40
2023/03/31 04:33:55;;;;;;;;;;;11.90;83.80;;;;;;5073972;28;19935;-39
2023/03/31 04:36:21;;;;;;;;;;;11.90;83.90;;;;;;5073625;28;19908;-39
2023/03/31 04:38:49;;;;;;;;;;;11.90;84.00;;;;;;5073597;28;20346;-39
2023/03/31 04:41:17;;;;;;;;;;;11.90;84.20;;;;;;5073493;28;20372;-40
2023/03/31 04:43:43;;;;;;;;;;;11.80;84.20;;;;;;5073509;28;19913;-38
2023/03/31 04:46:08;;;;;;;;;;;11.80;84.20;;;;;;5073647;28;19916;-40
2023/03/31 04:48:34;;;;;;;;;;;11.80;84.30;;;;;;5073423;28;19909;-40
2023/03/31 04:51:00;;;;;;;;;;;11.80;84.30;;;;;;5073716;28;19908;-40
2023/03/31 04:53:25;;;;;;;;;;;11.80;84.40;;;;;;5073276;28;19909;-39
2023/03/31 04:55:51;;;;;;;;;;;11.80;84.50;;;;;;5073513;28;19943;-37
2023/03/31 04:58:16;;;;;;;;;;;11.70;84.50;;;;;;5073401;28;19919;-40
2023/03/31 05:00:42;;;;;;;;;;;11.70;84.60;;;;;;5073447;28;19908;-38
2023/03/31 05:03:08;;;;;;;;;;;11.80;84.60;;;;;;5073017;28;19954;-39
2023/03/31 05:05:34;;;;;;;;;;;11.70;84.80;;;;;;5071631;28;19912;-38
2023/03/31 05:08:00;;;;;;;;;;;11.70;84.80;;;;;;5073076;28;19970;-38
2023/03/31 05:10:26;;;;;;;;;;;11.70;84.80;;;;;;5072948;28;19947;-38
2023/03/31 05:12:51;;;;;;;;;;;11.70;84.70;;;;;;5072254;28;19909;-45
2023/03/31 05:15:17;;;;;;;;;;;11.80;84.90;;;;;;5073095;28;20253;-38
2023/03/31 05:17:42;;;;;;;;;;;11.80;85.60;;;;;;5072898;28;19909;-39
2023/03/31 05:20:08;;;;;;;;;;;11.70;84.80;;;;;;5073079;28;20003;-39
2023/03/31 05:22:35;;;;;;;;;;;11.80;85.00;;;;;;5072820;28;19917;-36
2023/03/31 05:25:01;;;;;;;;;;;11.80;84.80;;;;;;5072849;28;20006;-38
2023/03/31 05:27:26;;;;;;;;;;;11.80;85.00;;;;;;5072681;28;19962;-38
2023/03/31 05:29:52;;;;;;;;;;;11.70;85.00;;;;;;5072685;28;19908;-36
2023/03/31 05:32:17;;;;;;;;;;;11.80;85.10;;;;;;5072551;28;19969;-38
2023/03/31 05:34:43;;;;;;;;;;;11.70;85.00;;;;;;5072330;28;19908;-35
2023/03/31 05:37:08;;;;;;;;;;;11.80;85.00;;;;;;5071022;28;20401;-34
2023/03/31 05:39:34;;;;;;;;;;;11.70;85.00;;;;;;5072571;28;20371;-36
2023/03/31 05:42:00;;;;;;;;;;;11.80;85.10;;;;;;5072438;28;19947;-35
2023/03/31 05:44:28;;;;;;;;;;;11.80;85.10;;;;;;5072450;28;19939;-37
2023/03/31 05:46:54;;;;;;;;;;;11.70;85.10;;;;;;5072319;28;20371;-41
2023/03/31 05:49:19;;;;;;;;;;;11.70;85.10;;;;;;5072516;28;19916;-47
2023/03/31 05:51:45;;;;;;;;;;;11.70;85.10;;;;;;5072194;28;19909;-39
2023/03/31 05:54:11;;;;;;;;;;;11.70;85.10;;;;;;5072228;28;19908;-41
2023/03/31 05:56:36;;;;;;;;;;;11.70;85.10;;;;;;5072360;28;19908;-37
2023/03/31 05:59:02;;;;;;;;;;;11.70;85.40;;;;;;5070853;28;20447;-35
2023/03/31 06:01:28;;;;;;;;;;;11.70;85.30;;;;;;5072160;28;19920;-36
2023/03/31 06:03:54;;;;;;;;;;;11.70;85.50;;;;;;5070750;28;19909;-36
2023/03/31 06:06:20;;;;;;;;;;;11.70;85.50;;;;;;5072020;28;20374;-35
2023/03/31 06:08:46;;;;;;;;;;;11.70;85.80;;;;;;5072319;28;19948;-37
2023/03/31 06:11:13;;;;;;;;;;;11.70;85.60;;;;;;5072166;28;19909;-36
2023/03/31 06:13:39;;;;;;;;;;;11.70;85.60;;;;;;5072193;28;19931;-36
2023/03/31 06:16:05;;;;;;;;;;;11.70;85.50;;;;;;5072152;28;19908;-36
2023/03/31 06:18:31;;;;;;;;;;;11.70;85.40;;;;;;5072190;28;20416;-35
2023/03/31 06:20:57;;;;;;;;;;;11.80;85.40;;;;;;5070696;28;19916;-36
2023/03/31 06:23:23;;;;;;;;;;;11.80;85.40;;;;;;5071469;28;20392;-36
2023/03/31 06:25:48;;;;;;;;;;;11.80;85.40;;;;;;5071900;28;19917;-47
2023/03/31 06:28:14;;;;;;;;;;;11.80;85.50;;;;;;5072054;28;20382;-35
2023/03/31 06:30:39;;;;;;;;;;;11.80;85.50;;;;;;5071800;28;20345;-38
2023/03/31 06:33:05;;;;;;;;;;;11.80;85.50;;;;;;5072062;28;19908;-38
2023/03/31 06:35:30;;;;;;;;;;;11.80;85.50;;;;;;5071729;28;19914;-36
2023/03/31 06:37:56;;;;;;;;;;;11.90;85.40;;;;;;5071892;28;19912;-37
2023/03/31 06:40:22;;;;;;;;;;;11.90;85.40;;;;;;5071926;28;19908;-36
2023/03/31 06:42:47;;;;;;;;;;;12.00;85.70;;;;;;5070488;28;19909;-49
2023/03/31 06:45:13;;;;;;;;;;;12.00;85.30;;;;;;5070168;28;19965;-35
2023/03/31 06:47:40;;;;;;;;;;;12.00;85.30;;;;;;5071992;28;19912;-36
2023/03/31 06:50:06;;;;;;;;;;;12.00;85.40;;;;;;5072098;28;20412;-35
2023/03/31 06:52:32;;;;;;;;;;;12.10;85.40;;;;;;5071917;28;19909;-36
2023/03/31 06:54:59;;;;;;;;;;;12.10;85.50;;;;;;5071684;28;19918;-37
2023/03/31 06:57:25;;;;;;;;;;;12.10;85.20;;;;;;5071269;28;19953;-36
2023/03/31 06:59:50;;;;;;;;;;;12.10;85.20;;;;;;5071866;28;20335;-37
2023/03/31 07:02:16;;;;;;;;;;;12.10;85.80;;;;;;5071499;28;19916;-37
2023/03/31 07:04:41;;;;;;;;;;;12.20;85.20;;;;;;5071425;28;19908;-36
2023/03/31 07:07:07;;;;;;;;;;;12.20;85.20;;;;;;5071358;28;19914;-36
2023/03/31 07:09:32;;;;;;;;;;;12.30;85.10;;;;;;5071689;28;19936;-36
2023/03/31 07:11:58;;;;;;;;;;;12.30;85.00;;;;;;5071599;28;19913;-39
2023/03/31 07:14:24;;;;;;;;;;;12.30;85.30;;;;;;5071427;28;19913;-37
2023/03/31 07:16:49;;;;;;;;;;;12.20;85.30;;;;;;5071560;28;20021;-44
2023/03/31 07:19:16;;;;;;;;;;;12.20;85.30;;;;;;5071687;28;19908;-36
2023/03/31 07:21:41;;;;;;;;;;;12.20;85.40;;;;;;5071421;28;19909;-36
2023/03/31 07:24:07;;;;;;;;;;;12.20;85.40;;;;;;5071270;28;19942;-46
2023/03/31 07:26:32;;;;;;;;;;;12.20;85.30;;;;;;5071222;28;19960;-37
2023/03/31 07:28:58;;;;;;;;;;;12.20;85.30;;;;;;5070839;28;20388;-40
2023/03/31 07:31:24;;;;;;;;;;;12.20;85.30;;;;;;5070285;28;20022;-37
2023/03/31 07:33:49;;;;;;;;;;;12.20;85.30;;;;;;5070487;28;19909;-41
2023/03/31 07:36:15;;;;;;;;;;;12.20;85.40;;;;;;5074523;28;19924;-36
2023/03/31 07:38:42;;;;;;;;;;;12.20;85.30;;;;;;5075000;28;19950;-39
2023/03/31 07:41:11;;;;;;;;;;;12.20;85.30;;;;;;5074772;28;20030;-36
2023/03/31 07:43:37;;;;;;;;;;;12.20;85.30;;;;;;5074878;28;19908;-39
2023/03/31 07:46:04;;;;;;;;;;;12.20;85.30;;;;;;5074727;28;19912;-38
2023/03/31 07:48:29;;;;;;;;;;;12.20;85.40;;;;;;5074673;28;19909;-36
2023/03/31 07:50:55;;;;;;;;;;;12.20;85.40;;;;;;5075005;28;20026;-43
2023/03/31 07:53:20;;;;;;;;;;;12.10;85.30;;;;;;5074775;28;19915;-39
2023/03/31 07:55:47;;;;;;;;;;;12.10;85.40;;;;;;5074427;28;20299;-36
2023/03/31 07:58:12;;;;;;;;;;;12.10;85.40;;;;;;5074345;28;19909;-37
2023/03/31 08:00:38;;;;;;;;;;;12.10;85.40;;;;;;5074633;28;19966;-38
2023/03/31 08:03:03;;;;;;;;;;;12.10;85.40;;;;;;5074526;28;20007;-37
2023/03/31 08:05:29;;;;;;;;;;;12.10;85.50;;;;;;5074703;28;19912;-36
2023/03/31 08:07:55;;;;;;;;;;;12.10;85.40;;;;;;5074750;28;20337;-34
2023/03/31 08:10:22;;;;;;;;;;;12.10;86.10;;;;;;5074768;28;19908;-40
2023/03/31 08:12:47;;;;;;;;;;;12.10;85.50;;;;;;5074390;28;19915;-38
2023/03/31 08:15:13;;;;;;;;;;;12.10;85.50;;;;;;5074220;28;19995;-38
2023/03/31 08:17:39;;;;;;;;;;;12.10;85.50;;;;;;5074109;28;19912;-38
2023/03/31 08:20:06;;;;;;;;;;;12.20;85.50;;;;;;5074288;28;19954;-37
2023/03/31 08:22:32;;;;;;;;;;;12.20;85.50;;;;;;5074134;28;19924;-35
2023/03/31 08:24:57;;;;;;;;;;;12.30;85.50;;;;;;5074367;28;20256;-36
2023/03/31 08:27:24;;;;;;;;;;;12.30;85.40;;;;;;5073945;28;20072;-35
2023/03/31 08:29:50;;;;;;;;;;;12.30;85.40;;;;;;5073963;28;19908;-38
2023/03/31 08:32:16;;;;;;;;;;;12.30;85.30;;;;;;5073789;28;19940;-42
2023/03/31 08:34:41;;;;;;;;;;;12.40;85.40;;;;;;5073848;28;20381;-35
2023/03/31 08:37:08;;;;;;;;;;;12.40;85.40;;;;;;5073646;28;19909;-36
2023/03/31 08:39:36;;;;;;;;;;;12.40;85.30;;;;;;5073992;28;19909;-37
2023/03/31 08:42:03;;;;;;;;;;;12.50;85.40;;;;;;5073953;28;19915;-37
2023/03/31 08:44:43;;;;;;;;;;;12.50;85.20;;;;;;5074198;28;19908;-42
2023/03/31 08:47:14;;;;;;;;;;;12.60;85.30;;;;;;5073468;28;19967;-38
2023/03/31 08:49:42;;;;;;;;;;;12.70;85.70;;;;;;5073860;28;19913;-41
2023/03/31 08:52:12;;;;;;;;;;;12.70;85.70;;;;;;5073559;28;19965;-44
2023/03/31 08:54:42;;;;;;;;;;;12.80;85.70;;;;;;5073798;28;19947;-40
2023/03/31 08:57:18;;;;;;;;;;;12.90;85.60;;;;;;5073554;28;20015;-37
2023/03/31 08:59:45;;;;;;;;;;;12.90;85.60;;;;;;5073543;28;19914;-35
2023/03/31 09:02:13;;;;;;;;;;;13.00;85.50;;;;;;5073482;28;19913;-37
2023/03/31 09:04:38;;;;;;;;;;;13.10;85.60;;;;;;5073468;28;19966;-37
2023/03/31 09:07:20;;;;;;;;;;;13.10;85.70;;;;;;5073488;28;20356;-35
2023/03/31 09:09:51;;;;;;;;;;;13.20;85.70;;;;;;5073417;28;19957;-43
2023/03/31 09:12:20;;;;;;;;;;;13.30;85.60;;;;;;5073066;28;20350;-35
2023/03/31 09:14:57;;;;;;;;;;;13.40;85.50;;;;;;5073120;28;19909;-36
2023/03/31 09:17:25;;;;;;;;;;;13.50;85.50;;;;;;5073015;28;19909;-36
2023/03/31 09:20:04;;;;;;;;;;;13.50;85.30;;;;;;5073038;28;19915;-37
2023/03/31 09:22:35;;;;;;;;;;;13.50;85.40;;;;;;5072755;28;19927;-35
2023/03/31 09:25:07;;;;;;;;;;;13.50;85.40;;;;;;5072875;28;19916;-36
2023/03/31 09:27:35;;;;;;;;;;;13.50;85.30;;;;;;5071670;28;19952;-38
2023/03/31 09:30:04;;;;;;;;;;;13.60;85.40;;;;;;5073073;28;20317;-37
2023/03/31 09:32:31;;;;;;;;;;;13.60;85.40;;;;;;5072908;28;20317;-38
2023/03/31 09:35:15;;;;;;;;;;;13.60;85.30;;;;;;5072921;28;19935;-46
2023/03/31 09:37:41;;;;;;;;;;;13.60;85.20;;;;;;5072663;28;20011;-46
2023/03/31 09:40:07;;;;;;;;;;;13.60;85.30;;;;;;5072534;28;20393;-33
2023/03/31 09:42:33;;;;;;;;;;;13.70;85.30;;;;;;5072885;28;19908;-38
2023/03/31 09:44:59;;;;;;;;;;;13.70;85.20;;;;;;5072665;28;19916;-38
2023/03/31 09:47:30;;;;;;;;;;;13.70;85.10;;;;;;5072435;28;19916;-35
2023/03/31 09:49:55;;;;;;;;;;;13.80;85.10;;;;;;5072442;28;19908;-39
2023/03/31 09:52:31;;;;;;;;;;;13.80;85.00;;;;;;5072301;28;20008;-47
2023/03/31 09:55:00;;;;;;;;;;;13.80;84.80;;;;;;5072545;28;19915;-35
2023/03/31 09:57:33;;;;;;;;;;;13.80;84.80;;;;;;5071695;28;20394;-36
2023/03/31 10:00:18;;;;;;;;;;;13.90;84.80;;;;;;5072506;28;19920;-38
2023/03/31 10:02:51;;;;;;;;;;;13.90;84.70;;;;;;5072319;28;19920;-36
2023/03/31 10:05:20;;;;;;;;;;;13.90;84.80;;;;;;5072766;28;19912;-36
2023/03/31 10:07:46;;;;;;;;;;;13.90;84.70;;;;;;5072164;28;19908;-36
2023/03/31 10:10:22;;;;;;;;;;;13.90;84.50;;;;;;5070678;28;19915;-53
2023/03/31 10:12:50;;;;;;;;;;;13.90;84.40;;;;;;5072122;28;19936;-40
2023/03/31 10:15:25;;;;;;;;;;;13.80;84.30;;;;;;5072234;28;19999;-38
2023/03/31 10:17:50;;;;;;;;;;;13.70;84.30;;;;;;5072135;28;19909;-38
2023/03/31 10:20:19;;;;;;;;;;;13.60;84.40;;;;;;5071831;28;20288;-34
2023/03/31 10:22:44;;;;;;;;;;;13.60;84.50;;;;;;5071840;28;19969;-36
2023/03/31 10:25:15;;;;;;;;;;;13.60;84.30;;;;;;5071820;28;19916;-35
2023/03/31 10:27:43;;;;;;;;;;;13.50;84.30;;;;;;5072256;28;20310;-38
2023/03/31 10:30:10;;;;;;;;;;;13.50;84.70;;;;;;5071769;28;20426;-37
2023/03/31 10:32:42;;;;;;;;;;;13.50;84.40;;;;;;5072115;28;20003;-37
2023/03/31 10:35:08;;;;;;;;;;;13.50;84.20;;;;;;5071736;28;19909;-35
2023/03/31 10:37:35;;;;;;;;;;;13.50;84.00;;;;;;5071903;28;19915;-36
2023/03/31 10:40:12;;;;;;;;;;;13.50;84.10;;;;;;5072341;28;20003;-36
2023/03/31 10:42:38;;;;;;;;;;;13.50;83.80;;;;;;5072136;28;19915;-35
2023/03/31 10:45:24;;;;;;;;;;;13.50;83.60;;;;;;5070470;28;19999;-35
2023/03/31 10:47:52;;;;;;;;;;;13.60;83.40;;;;;;5071947;28;20292;-36
2023/03/31 10:50:18;;;;;;;;;;;13.70;83.10;;;;;;5071735;28;20262;-35
2023/03/31 10:52:47;;;;;;;;;;;13.80;83.00;;;;;;5071721;28;20368;-35
2023/03/31 10:55:17;;;;;;;;;;;13.90;82.90;;;;;;5071703;28;20334;-36
2023/03/31 10:57:50;;;;;;;;;;;14.00;82.40;;;;;;5071680;28;19931;-38
2023/03/31 11:00:19;;;;;;;;;;;14.00;82.50;;;;;;5071723;28;19909;-36
2023/03/31 11:02:58;;;;;;;;;;;14.10;82.00;;;;;;5071505;28;19908;-40
2023/03/31 11:05:33;;;;;;;;;;;14.10;81.50;;;;;;5071508;28;19919;-36
2023/03/31 11:08:17;;;;;;;;;;;14.20;81.80;;;;;;5071480;28;19919;-38
2023/03/31 11:11:02;;;;;;;;;;;14.30;81.40;;;;;;5073851;28;19908;-36
2023/03/31 11:13:56;;;;;;;;;;;14.40;81.40;;;;;;5075619;28;19958;-35
2023/03/31 11:16:46;;;;;;;;;;;14.40;81.00;;;;;;5074462;28;19958;-38
2023/03/31 11:19:50;;;;;;;;;;;14.40;79.60;;;;;;5075175;28;19962;-37
2023/03/31 11:22:18;;;;;;;;;;;14.30;80.40;;;;;;5072654;28;19916;-42
2023/03/31 11:24:46;;;;;;;;;;;14.30;80.40;;;;;;5072643;28;19955;-43
2023/03/31 11:27:12;;;;;;;;;;;14.30;80.50;;;;;;5073757;28;20003;-44
2023/03/31 11:29:37;;;;;;;;;;;14.30;80.70;;;;;;5075003;28;19951;-38
2023/03/31 11:32:08;;;;;;;;;;;14.40;80.70;;;;;;5075183;28;19913;-38
2023/03/31 11:34:52;;;;;;;;;;;14.50;80.60;;;;;;5075052;28;19908;-36
2023/03/31 11:37:20;;;;;;;;;;;14.50;80.00;;;;;;5075218;28;19908;-37
2023/03/31 11:39:50;;;;;;;;;;;14.60;80.30;;;;;;5074855;28;19908;-39
2023/03/31 11:42:20;;;;;;;;;;;14.50;79.80;;;;;;5074738;28;19914;-37
2023/03/31 11:44:51;;;;;;;;;;;14.50;80.00;;;;;;5074837;28;19909;-36
2023/03/31 11:47:26;;;;;;;;;;;14.50;79.20;;;;;;5075177;28;19909;-38
2023/03/31 11:49:54;;;;;;;;;;;14.50;79.30;;;;;;5075058;28;20421;-36
2023/03/31 11:52:33;;;;;;;;;;;14.60;78.10;;;;;;5074918;28;20356;-37
2023/03/31 11:55:04;;;;;;;;;;;14.60;78.60;;;;;;5074563;28;19912;-37
2023/03/31 11:57:32;;;;;;;;;;;14.70;78.80;;;;;;5074525;28;19932;-39
2023/03/31 12:00:15;;;;;;;;;;;14.80;78.90;;;;;;5074648;28;20011;-36
2023/03/31 12:02:40;;;;;;;;;;;14.90;78.50;;;;;;5074644;28;19989;-38
2023/03/31 12:05:07;;;;;;;;;;;14.80;77.70;;;;;;5074589;28;20003;-39
2023/03/31 12:07:38;;;;;;;;;;;14.80;77.50;;;;;;5075392;28;19958;-36
2023/03/31 12:10:21;;;;;;;;;;;14.70;77.30;;;;;;5074602;28;19954;-40
2023/03/31 12:13:04;;;;;;;;;;;14.60;77.70;;;;;;5074808;28;19909;-44
2023/03/31 12:15:52;;;;;;;;;;;14.50;77.90;;;;;;5074666;28;19958;-38
2023/03/31 12:18:21;;;;;;;;;;;14.60;78.10;;;;;;5073091;28;19916;-37
2023/03/31 12:20:49;;;;;;;;;;;14.60;78.10;;;;;;5073594;28;19932;-37
2023/03/31 12:23:18;;;;;;;;;;;14.50;78.80;;;;;;5073907;28;19968;-58
2023/03/31 12:25:51;;;;;;;;;;;14.50;78.10;;;;;;5074239;28;19913;-36
2023/03/31 12:28:18;;;;;;;;;;;14.50;78.30;;;;;;5074116;28;19909;-36
2023/03/31 12:30:45;;;;;;;;;;;14.50;78.00;;;;;;5073857;28;19912;-38
2023/03/31 12:33:28;;;;;;;;;;;14.40;78.20;;;;;;5073944;28;19940;-36
2023/03/31 12:36:07;;;;;;;;;;;14.40;78.40;;;;;;5073969;28;19912;-36
2023/03/31 12:38:51;;;;;;;;;;;14.30;78.40;;;;;;5073877;28;20032;-37
2023/03/31 12:41:19;;;;;;;;;;;14.30;78.10;;;;;;5073607;28;19915;-36
2023/03/31 12:43:54;;;;;;;;;;;14.30;78.40;;;;;;5073872;28;19996;-39
2023/03/31 12:46:32;;;;;;;;;;;14.20;78.00;;;;;;5073526;28;19917;-36
2023/03/31 12:49:23;;;;;;;;;;;14.10;78.10;;;;;;5073603;28;19952;-37
2023/03/31 12:51:58;;;;;;;;;;;14.10;78.20;;;;;;5073535;28;19919;-44
2023/03/31 12:54:56;;;;;;;;;;;14.10;78.20;;;;;;5073405;28;19916;-38
2023/03/31 12:57:25;;;;;;;;;;;14.10;78.30;;;;;;5071915;28;20033;-38
2023/03/31 13:00:11;;;;;;;;;;;14.20;78.30;;;;;;5071885;28;19908;-44
2023/03/31 13:02:38;;;;;;;;;;;14.10;78.30;;;;;;5073213;28;20045;-37
2023/03/31 13:05:42;;;;;;;;;;;14.10;78.00;;;;;;5073297;28;20505;-38
2023/03/31 13:08:08;;;;;;;;;;;14.10;78.10;;;;;;5070657;28;19913;-37
2023/03/31 13:10:53;;;;;;;;;;;14.00;78.20;;;;;;5070841;28;19909;-38
2023/03/31 13:13:19;;;;;;;;;;;14.00;78.20;;;;;;5072239;28;19912;-41
2023/03/31 13:15:55;;;;;;;;;;;14.00;78.10;;;;;;5072958;28;19915;-37
2023/03/31 13:18:21;;;;;;;;;;;14.00;77.80;;;;;;5073128;28;19913;-37
2023/03/31 13:20:56;;;;;;;;;;;14.00;78.00;;;;;;5072943;28;20003;-37
2023/03/31 13:23:24;;;;;;;;;;;14.00;78.10;;;;;;5072939;28;20384;-37
2023/03/31 13:25:56;;;;;;;;;;;14.10;78.00;;;;;;5072854;28;20287;-42
2023/03/31 13:28:21;;;;;;;;;;;14.20;77.80;;;;;;5072751;28;19909;-39
2023/03/31 13:30:50;;;;;;;;;;;14.20;77.80;;;;;;5072093;28;21809;-42
2023/03/31 13:33:25;;;;;;;;;;;14.20;77.90;;;;;;5071879;28;19915;-38
2023/03/31 13:36:14;;;;;;;;;;;14.30;78.00;;;;;;5072834;28;19909;-48
2023/03/31 13:38:54;;;;;;;;;;;14.20;78.10;;;;;;5071675;28;19910;-37
2023/03/31 13:41:25;;;;;;;;;;;14.20;78.30;;;;;;5072782;28;19909;-42
2023/03/31 13:44:09;;;;;;;;;;;14.30;78.20;;;;;;5072706;28;20344;-45
2023/03/31 13:47:06;;;;;;;;;;;14.20;78.10;;;;;;5070926;28;19919;-39
2023/03/31 13:49:44;;;;;;;;;;;14.10;78.40;;;;;;5070980;28;20367;-39
2023/03/31 13:52:11;;;;;;;;;;;14.10;78.50;;;;;;5072178;28;19908;-37
2023/03/31 13:54:55;;;;;;;;;;;14.00;78.60;;;;;;5070841;28;19999;-37
2023/03/31 13:57:20;;;;;;;;;;;13.90;79.00;;;;;;5072044;28;20356;-41
2023/03/31 14:00:11;;;;;;;;;;;13.90;79.30;;;;;;5072055;28;19915;-37
2023/03/31 14:02:39;;;;;;;;;;;13.80;79.40;;;;;;5071882;28;19915;-37
2023/03/31 14:05:16;;;;;;;;;;;13.80;79.60;;;;;;5071793;28;19916;-36
2023/03/31 14:07:41;;;;;;;;;;;13.80;79.70;;;;;;5070396;28;20368;-38
2023/03/31 14:10:20;;;;;;;;;;;13.80;79.80;;;;;;5071690;28;19966;-37
2023/03/31 14:12:47;;;;;;;;;;;13.80;80.10;;;;;;5071899;28;20286;-38
2023/03/31 14:15:17;;;;;;;;;;;13.70;80.30;;;;;;5071655;28;20365;-39
2023/03/31 14:17:43;;;;;;;;;;;13.70;80.50;;;;;;5071894;28;20364;-39
2023/03/31 14:20:26;;;;;;;;;;;13.70;80.50;;;;;;5071901;28;20113;-37
2023/03/31 14:23:10;;;;;;;;;;;13.70;80.50;;;;;;5071601;28;20016;-37
2023/03/31 14:25:36;;;;;;;;;;;13.70;80.60;;;;;;5071648;28;19916;-38
2023/03/31 14:28:04;;;;;;;;;;;13.70;80.40;;;;;;5071621;28;19920;-39
2023/03/31 14:30:41;;;;;;;;;;;13.70;80.40;;;;;;5071791;28;19913;-43
2023/03/31 14:33:15;;;;;;;;;;;13.70;80.50;;;;;;5072161;28;19919;-36